sensor_id;sensor_type;location;lat;lon;timestamp;P1;durP1;ratioP1;P2;durP2;ratioP2
60243;SDS011;46106;51.468;5.814;2023-02-26T00:02:15;15.27;;;3.00;;
60243;SDS011;46106;51.468;5.814;2023-02-26T00:04:41;12.18;;;2.92;;
60243;SDS011;46106;51.468;5.814;2023-02-26T00:07:06;17.67;;;3.80;;
60243;SDS011;46106;51.468;5.814;2023-02-26T00:09:32;17.90;;;3.28;;
60243;SDS011;46106;51.468;5.814;2023-02-26T00:11:58;9.10;;;2.92;;
60243;SDS011;46106;51.468;5.814;2023-02-26T00:14:24;8.98;;;3.10;;
60243;SDS011;46106;51.468;5.814;2023-02-26T00:17:05;8.88;;;3.30;;
60243;SDS011;46106;51.468;5.814;2023-02-26T00:19:41;12.60;;;2.83;;
60243;SDS011;46106;51.468;5.814;2023-02-26T00:22:07;12.77;;;3.15;;
60243;SDS011;46106;51.468;5.814;2023-02-26T00:24:33;9.68;;;2.55;;
60243;SDS011;46106;51.468;5.814;2023-02-26T00:26:58;11.60;;;3.30;;
60243;SDS011;46106;51.468;5.814;2023-02-26T00:29:24;11.57;;;3.20;;
60243;SDS011;46106;51.468;5.814;2023-02-26T00:31:50;7.40;;;2.75;;
60243;SDS011;46106;51.468;5.814;2023-02-26T00:34:16;23.08;;;3.03;;
60243;SDS011;46106;51.468;5.814;2023-02-26T00:36:49;14.52;;;3.28;;
60243;SDS011;46106;51.468;5.814;2023-02-26T00:42:10;14.10;;;4.22;;
60243;SDS011;46106;51.468;5.814;2023-02-26T00:44:36;8.93;;;3.13;;
60243;SDS011;46106;51.468;5.814;2023-02-26T00:47:09;12.00;;;2.95;;
60243;SDS011;46106;51.468;5.814;2023-02-26T00:53:03;13.95;;;2.80;;
60243;SDS011;46106;51.468;5.814;2023-02-26T00:55:32;9.18;;;2.65;;
60243;SDS011;46106;51.468;5.814;2023-02-26T00:57:57;11.35;;;3.00;;
60243;SDS011;46106;51.468;5.814;2023-02-26T01:00:23;9.48;;;2.17;;
60243;SDS011;46106;51.468;5.814;2023-02-26T01:02:52;4.88;;;2.22;;
60243;SDS011;46106;51.468;5.814;2023-02-26T01:05:18;7.70;;;2.00;;
60243;SDS011;46106;51.468;5.814;2023-02-26T01:10:21;9.57;;;2.63;;
60243;SDS011;46106;51.468;5.814;2023-02-26T01:12:47;13.88;;;2.22;;
60243;SDS011;46106;51.468;5.814;2023-02-26T01:15:13;8.57;;;2.42;;
60243;SDS011;46106;51.468;5.814;2023-02-26T01:17:43;6.55;;;2.45;;
60243;SDS011;46106;51.468;5.814;2023-02-26T01:20:21;14.85;;;2.90;;
60243;SDS011;46106;51.468;5.814;2023-02-26T01:28:19;9.38;;;2.95;;
60243;SDS011;46106;51.468;5.814;2023-02-26T01:30:46;11.10;;;1.90;;
60243;SDS011;46106;51.468;5.814;2023-02-26T01:35:54;8.35;;;2.78;;
60243;SDS011;46106;51.468;5.814;2023-02-26T01:49:14;10.55;;;2.33;;
60243;SDS011;46106;51.468;5.814;2023-02-26T01:51:43;7.10;;;2.13;;
60243;SDS011;46106;51.468;5.814;2023-02-26T01:54:12;7.72;;;2.10;;
60243;SDS011;46106;51.468;5.814;2023-02-26T01:56:39;8.25;;;2.47;;
60243;SDS011;46106;51.468;5.814;2023-02-26T01:59:06;7.80;;;2.50;;
60243;SDS011;46106;51.468;5.814;2023-02-26T02:01:35;15.55;;;2.33;;
60243;SDS011;46106;51.468;5.814;2023-02-26T02:04:03;6.78;;;2.03;;
60243;SDS011;46106;51.468;5.814;2023-02-26T02:06:32;11.73;;;2.58;;
60243;SDS011;46106;51.468;5.814;2023-02-26T02:08:57;13.23;;;2.42;;
60243;SDS011;46106;51.468;5.814;2023-02-26T02:11:23;8.77;;;2.08;;
60243;SDS011;46106;51.468;5.814;2023-02-26T02:18:51;9.48;;;2.53;;
60243;SDS011;46106;51.468;5.814;2023-02-26T02:21:31;9.13;;;2.30;;
60243;SDS011;46106;51.468;5.814;2023-02-26T02:29:49;9.52;;;1.88;;
60243;SDS011;46106;51.468;5.814;2023-02-26T02:34:56;6.57;;;1.75;;
60243;SDS011;46106;51.468;5.814;2023-02-26T02:37:44;6.05;;;1.98;;
60243;SDS011;46106;51.468;5.814;2023-02-26T02:43:00;6.38;;;1.95;;
60243;SDS011;46106;51.468;5.814;2023-02-26T02:49:19;11.45;;;2.00;;
60243;SDS011;46106;51.468;5.814;2023-02-26T02:51:34;7.75;;;1.45;;
60243;SDS011;46106;51.468;5.814;2023-02-26T02:57:19;8.48;;;1.77;;
60243;SDS011;46106;51.468;5.814;2023-02-26T02:59:48;9.77;;;1.70;;
60243;SDS011;46106;51.468;5.814;2023-02-26T03:02:23;4.05;;;1.55;;
60243;SDS011;46106;51.468;5.814;2023-02-26T03:04:55;8.60;;;1.60;;
60243;SDS011;46106;51.468;5.814;2023-02-26T03:07:21;12.65;;;1.85;;
60243;SDS011;46106;51.468;5.814;2023-02-26T03:09:47;6.70;;;2.25;;
60243;SDS011;46106;51.468;5.814;2023-02-26T03:12:13;3.70;;;1.30;;
60243;SDS011;46106;51.468;5.814;2023-02-26T03:14:38;7.32;;;1.52;;
60243;SDS011;46106;51.468;5.814;2023-02-26T03:19:58;5.47;;;1.45;;
60243;SDS011;46106;51.468;5.814;2023-02-26T03:25:15;8.93;;;1.38;;
60243;SDS011;46106;51.468;5.814;2023-02-26T03:30:25;10.05;;;1.67;;
60243;SDS011;46106;51.468;5.814;2023-02-26T03:35:56;3.53;;;1.20;;
60243;SDS011;46106;51.468;5.814;2023-02-26T03:38:36;4.07;;;1.13;;
60243;SDS011;46106;51.468;5.814;2023-02-26T03:41:32;4.00;;;1.10;;
60243;SDS011;46106;51.468;5.814;2023-02-26T03:44:04;3.00;;;1.10;;
60243;SDS011;46106;51.468;5.814;2023-02-26T03:46:39;7.97;;;1.17;;
60243;SDS011;46106;51.468;5.814;2023-02-26T03:49:10;10.38;;;1.15;;
60243;SDS011;46106;51.468;5.814;2023-02-26T03:51:39;8.43;;;1.58;;
60243;SDS011;46106;51.468;5.814;2023-02-26T03:54:08;6.60;;;1.20;;
60243;SDS011;46106;51.468;5.814;2023-02-26T03:56:46;3.60;;;1.17;;
60243;SDS011;46106;51.468;5.814;2023-02-26T03:59:13;8.15;;;1.15;;
60243;SDS011;46106;51.468;5.814;2023-02-26T04:01:42;5.50;;;1.25;;
60243;SDS011;46106;51.468;5.814;2023-02-26T04:04:11;5.97;;;1.17;;
60243;SDS011;46106;51.468;5.814;2023-02-26T04:06:49;7.50;;;1.30;;
60243;SDS011;46106;51.468;5.814;2023-02-26T04:09:18;8.73;;;1.00;;
60243;SDS011;46106;51.468;5.814;2023-02-26T04:11:45;5.25;;;0.93;;
60243;SDS011;46106;51.468;5.814;2023-02-26T04:14:11;12.68;;;1.55;;
60243;SDS011;46106;51.468;5.814;2023-02-26T04:16:37;2.72;;;1.00;;
60243;SDS011;46106;51.468;5.814;2023-02-26T04:19:02;5.72;;;1.55;;
60243;SDS011;46106;51.468;5.814;2023-02-26T04:21:28;2.85;;;1.15;;
60243;SDS011;46106;51.468;5.814;2023-02-26T04:23:53;5.53;;;1.00;;
60243;SDS011;46106;51.468;5.814;2023-02-26T04:26:19;14.73;;;1.30;;
60243;SDS011;46106;51.468;5.814;2023-02-26T04:28:44;1.90;;;1.23;;
60243;SDS011;46106;51.468;5.814;2023-02-26T04:31:10;2.80;;;0.82;;
60243;SDS011;46106;51.468;5.814;2023-02-26T04:33:35;4.60;;;0.95;;
60243;SDS011;46106;51.468;5.814;2023-02-26T04:36:04;9.48;;;1.08;;
60243;SDS011;46106;51.468;5.814;2023-02-26T04:38:30;3.05;;;0.80;;
60243;SDS011;46106;51.468;5.814;2023-02-26T04:40:55;9.55;;;1.17;;
60243;SDS011;46106;51.468;5.814;2023-02-26T04:43:21;2.88;;;0.88;;
60243;SDS011;46106;51.468;5.814;2023-02-26T04:45:47;15.02;;;1.63;;
60243;SDS011;46106;51.468;5.814;2023-02-26T04:48:13;4.85;;;1.30;;
60243;SDS011;46106;51.468;5.814;2023-02-26T04:50:40;9.25;;;1.17;;
60243;SDS011;46106;51.468;5.814;2023-02-26T04:53:05;4.18;;;1.35;;
60243;SDS011;46106;51.468;5.814;2023-02-26T04:55:32;1.80;;;1.02;;
60243;SDS011;46106;51.468;5.814;2023-02-26T04:57:58;7.15;;;1.23;;
60243;SDS011;46106;51.468;5.814;2023-02-26T05:00:27;9.52;;;1.23;;
60243;SDS011;46106;51.468;5.814;2023-02-26T05:02:53;6.80;;;1.15;;
60243;SDS011;46106;51.468;5.814;2023-02-26T05:05:18;8.50;;;1.05;;
60243;SDS011;46106;51.468;5.814;2023-02-26T05:07:44;3.38;;;1.30;;
60243;SDS011;46106;51.468;5.814;2023-02-26T05:10:10;12.70;;;1.23;;
60243;SDS011;46106;51.468;5.814;2023-02-26T05:12:36;6.38;;;0.95;;
60243;SDS011;46106;51.468;5.814;2023-02-26T05:15:02;6.60;;;0.95;;
60243;SDS011;46106;51.468;5.814;2023-02-26T05:17:28;7.82;;;0.90;;
60243;SDS011;46106;51.468;5.814;2023-02-26T05:19:53;2.22;;;0.70;;
60243;SDS011;46106;51.468;5.814;2023-02-26T05:22:22;6.47;;;0.98;;
60243;SDS011;46106;51.468;5.814;2023-02-26T05:24:47;2.97;;;0.90;;
60243;SDS011;46106;51.468;5.814;2023-02-26T05:27:13;4.38;;;1.00;;
60243;SDS011;46106;51.468;5.814;2023-02-26T05:29:39;7.93;;;1.13;;
60243;SDS011;46106;51.468;5.814;2023-02-26T05:32:06;3.05;;;1.23;;
60243;SDS011;46106;51.468;5.814;2023-02-26T05:34:32;4.80;;;0.90;;
60243;SDS011;46106;51.468;5.814;2023-02-26T05:36:57;3.35;;;0.77;;
60243;SDS011;46106;51.468;5.814;2023-02-26T05:39:22;7.03;;;0.80;;
60243;SDS011;46106;51.468;5.814;2023-02-26T05:41:48;7.47;;;1.13;;
60243;SDS011;46106;51.468;5.814;2023-02-26T05:44:15;4.65;;;0.73;;
60243;SDS011;46106;51.468;5.814;2023-02-26T05:46:41;3.70;;;0.77;;
60243;SDS011;46106;51.468;5.814;2023-02-26T05:49:07;14.20;;;1.98;;
60243;SDS011;46106;51.468;5.814;2023-02-26T05:51:32;1.60;;;0.90;;
60243;SDS011;46106;51.468;5.814;2023-02-26T05:53:58;4.47;;;0.82;;
60243;SDS011;46106;51.468;5.814;2023-02-26T05:56:23;5.85;;;0.90;;
60243;SDS011;46106;51.468;5.814;2023-02-26T05:58:51;7.70;;;1.02;;
60243;SDS011;46106;51.468;5.814;2023-02-26T06:01:17;3.97;;;1.40;;
60243;SDS011;46106;51.468;5.814;2023-02-26T06:03:42;4.55;;;1.00;;
60243;SDS011;46106;51.468;5.814;2023-02-26T06:06:12;6.05;;;1.40;;
60243;SDS011;46106;51.468;5.814;2023-02-26T06:08:39;6.43;;;1.20;;
60243;SDS011;46106;51.468;5.814;2023-02-26T06:11:05;2.88;;;0.68;;
60243;SDS011;46106;51.468;5.814;2023-02-26T06:13:30;12.57;;;1.30;;
60243;SDS011;46106;51.468;5.814;2023-02-26T06:15:56;4.22;;;1.00;;
60243;SDS011;46106;51.468;5.814;2023-02-26T06:18:21;2.70;;;0.77;;
60243;SDS011;46106;51.468;5.814;2023-02-26T06:20:47;4.28;;;1.10;;
60243;SDS011;46106;51.468;5.814;2023-02-26T06:23:12;4.30;;;1.10;;
60243;SDS011;46106;51.468;5.814;2023-02-26T06:25:41;4.15;;;0.90;;
60243;SDS011;46106;51.468;5.814;2023-02-26T06:28:06;5.13;;;0.80;;
60243;SDS011;46106;51.468;5.814;2023-02-26T06:30:32;8.38;;;0.90;;
60243;SDS011;46106;51.468;5.814;2023-02-26T06:32:58;2.20;;;0.82;;
60243;SDS011;46106;51.468;5.814;2023-02-26T06:35:23;7.10;;;0.93;;
60243;SDS011;46106;51.468;5.814;2023-02-26T06:37:49;5.95;;;0.80;;
60243;SDS011;46106;51.468;5.814;2023-02-26T06:40:14;3.70;;;0.80;;
60243;SDS011;46106;51.468;5.814;2023-02-26T06:42:40;5.85;;;0.80;;
60243;SDS011;46106;51.468;5.814;2023-02-26T06:45:05;3.88;;;0.85;;
60243;SDS011;46106;51.468;5.814;2023-02-26T06:47:31;10.45;;;1.17;;
60243;SDS011;46106;51.468;5.814;2023-02-26T06:49:57;3.03;;;0.73;;
60243;SDS011;46106;51.468;5.814;2023-02-26T06:52:22;6.28;;;0.80;;
60243;SDS011;46106;51.468;5.814;2023-02-26T06:54:48;1.30;;;0.77;;
60243;SDS011;46106;51.468;5.814;2023-02-26T06:57:13;12.40;;;0.95;;
60243;SDS011;46106;51.468;5.814;2023-02-26T06:59:39;3.92;;;0.77;;
60243;SDS011;46106;51.468;5.814;2023-02-26T07:02:05;2.80;;;0.82;;
60243;SDS011;46106;51.468;5.814;2023-02-26T07:04:30;4.93;;;1.17;;
60243;SDS011;46106;51.468;5.814;2023-02-26T07:06:56;4.43;;;1.02;;
60243;SDS011;46106;51.468;5.814;2023-02-26T07:09:21;5.43;;;0.95;;
60243;SDS011;46106;51.468;5.814;2023-02-26T07:11:47;5.00;;;0.73;;
60243;SDS011;46106;51.468;5.814;2023-02-26T07:14:12;2.70;;;0.60;;
60243;SDS011;46106;51.468;5.814;2023-02-26T07:16:37;2.40;;;0.90;;
60243;SDS011;46106;51.468;5.814;2023-02-26T07:19:03;6.60;;;1.40;;
60243;SDS011;46106;51.468;5.814;2023-02-26T07:21:28;2.38;;;0.70;;
60243;SDS011;46106;51.468;5.814;2023-02-26T07:23:55;1.35;;;0.70;;
60243;SDS011;46106;51.468;5.814;2023-02-26T07:26:21;4.10;;;0.85;;
60243;SDS011;46106;51.468;5.814;2023-02-26T07:28:46;5.35;;;0.98;;
60243;SDS011;46106;51.468;5.814;2023-02-26T07:31:12;4.22;;;0.70;;
60243;SDS011;46106;51.468;5.814;2023-02-26T07:33:37;5.72;;;1.02;;
60243;SDS011;46106;51.468;5.814;2023-02-26T07:36:04;3.53;;;0.80;;
60243;SDS011;46106;51.468;5.814;2023-02-26T07:38:30;17.33;;;1.20;;
60243;SDS011;46106;51.468;5.814;2023-02-26T07:40:55;8.27;;;1.17;;
60243;SDS011;46106;51.468;5.814;2023-02-26T07:43:22;1.40;;;0.60;;
60243;SDS011;46106;51.468;5.814;2023-02-26T07:45:51;2.17;;;0.60;;
60243;SDS011;46106;51.468;5.814;2023-02-26T07:48:17;2.10;;;1.02;;
60243;SDS011;46106;51.468;5.814;2023-02-26T07:50:42;4.18;;;1.13;;
60243;SDS011;46106;51.468;5.814;2023-02-26T07:53:09;3.53;;;0.65;;
60243;SDS011;46106;51.468;5.814;2023-02-26T07:55:35;4.40;;;0.95;;
60243;SDS011;46106;51.468;5.814;2023-02-26T07:58:00;2.47;;;0.88;;
60243;SDS011;46106;51.468;5.814;2023-02-26T08:00:26;2.28;;;0.60;;
60243;SDS011;46106;51.468;5.814;2023-02-26T08:02:51;5.40;;;0.82;;
60243;SDS011;46106;51.468;5.814;2023-02-26T08:05:17;1.05;;;0.50;;
60243;SDS011;46106;51.468;5.814;2023-02-26T08:07:42;7.03;;;0.60;;
60243;SDS011;46106;51.468;5.814;2023-02-26T08:10:08;2.05;;;0.77;;
60243;SDS011;46106;51.468;5.814;2023-02-26T08:12:34;0.85;;;0.50;;
60243;SDS011;46106;51.468;5.814;2023-02-26T08:15:00;6.05;;;0.90;;
60243;SDS011;46106;51.468;5.814;2023-02-26T08:17:26;0.65;;;0.50;;
60243;SDS011;46106;51.468;5.814;2023-02-26T08:19:52;1.88;;;0.70;;
60243;SDS011;46106;51.468;5.814;2023-02-26T08:22:17;4.72;;;1.17;;
60243;SDS011;46106;51.468;5.814;2023-02-26T08:24:43;1.77;;;0.52;;
60243;SDS011;46106;51.468;5.814;2023-02-26T08:27:09;3.33;;;0.70;;
60243;SDS011;46106;51.468;5.814;2023-02-26T08:29:34;4.82;;;0.70;;
60243;SDS011;46106;51.468;5.814;2023-02-26T08:32:00;9.00;;;1.05;;
60243;SDS011;46106;51.468;5.814;2023-02-26T08:34:25;4.25;;;0.77;;
60243;SDS011;46106;51.468;5.814;2023-02-26T08:36:51;1.92;;;0.70;;
60243;SDS011;46106;51.468;5.814;2023-02-26T08:39:16;3.45;;;0.70;;
60243;SDS011;46106;51.468;5.814;2023-02-26T08:41:42;5.70;;;0.70;;
60243;SDS011;46106;51.468;5.814;2023-02-26T08:44:08;2.65;;;0.52;;
60243;SDS011;46106;51.468;5.814;2023-02-26T08:46:33;5.55;;;0.65;;
60243;SDS011;46106;51.468;5.814;2023-02-26T08:48:59;3.72;;;0.60;;
60243;SDS011;46106;51.468;5.814;2023-02-26T08:51:24;2.35;;;0.50;;
60243;SDS011;46106;51.468;5.814;2023-02-26T08:53:50;5.90;;;0.75;;
60243;SDS011;46106;51.468;5.814;2023-02-26T08:56:15;2.38;;;0.57;;
60243;SDS011;46106;51.468;5.814;2023-02-26T08:58:41;5.30;;;0.80;;
60243;SDS011;46106;51.468;5.814;2023-02-26T09:01:08;2.05;;;0.50;;
60243;SDS011;46106;51.468;5.814;2023-02-26T09:03:34;10.63;;;0.65;;
60243;SDS011;46106;51.468;5.814;2023-02-26T09:05:59;4.28;;;0.90;;
60243;SDS011;46106;51.468;5.814;2023-02-26T09:08:25;3.22;;;0.80;;
60243;SDS011;46106;51.468;5.814;2023-02-26T09:10:51;3.45;;;0.77;;
60243;SDS011;46106;51.468;5.814;2023-02-26T09:13:16;3.72;;;0.77;;
60243;SDS011;46106;51.468;5.814;2023-02-26T09:15:41;5.45;;;0.40;;
60243;SDS011;46106;51.468;5.814;2023-02-26T09:18:07;3.75;;;0.65;;
60243;SDS011;46106;51.468;5.814;2023-02-26T09:20:40;3.13;;;0.65;;
60243;SDS011;46106;51.468;5.814;2023-02-26T09:23:08;4.50;;;0.70;;
60243;SDS011;46106;51.468;5.814;2023-02-26T09:25:34;1.15;;;0.60;;
60243;SDS011;46106;51.468;5.814;2023-02-26T09:27:59;1.60;;;0.50;;
60243;SDS011;46106;51.468;5.814;2023-02-26T09:30:25;2.90;;;0.77;;
60243;SDS011;46106;51.468;5.814;2023-02-26T09:32:51;5.20;;;0.80;;
60243;SDS011;46106;51.468;5.814;2023-02-26T09:35:16;3.00;;;0.52;;
60243;SDS011;46106;51.468;5.814;2023-02-26T09:37:42;2.13;;;0.50;;
60243;SDS011;46106;51.468;5.814;2023-02-26T09:40:10;10.00;;;0.70;;
60243;SDS011;46106;51.468;5.814;2023-02-26T09:45:24;2.33;;;0.50;;
60243;SDS011;46106;51.468;5.814;2023-02-26T09:47:54;2.10;;;0.60;;
60243;SDS011;46106;51.468;5.814;2023-02-26T09:50:22;1.95;;;0.40;;
60243;SDS011;46106;51.468;5.814;2023-02-26T09:55:18;3.33;;;0.80;;
60243;SDS011;46106;51.468;5.814;2023-02-26T09:57:48;1.42;;;0.60;;
60243;SDS011;46106;51.468;5.814;2023-02-26T10:08:45;2.83;;;0.50;;
60243;SDS011;46106;51.468;5.814;2023-02-26T10:11:25;3.95;;;0.45;;
60243;SDS011;46106;51.468;5.814;2023-02-26T10:16:36;3.83;;;0.70;;
60243;SDS011;46106;51.468;5.814;2023-02-26T10:19:10;2.75;;;0.43;;
60243;SDS011;46106;51.468;5.814;2023-02-26T10:24:25;3.22;;;0.52;;
60243;SDS011;46106;51.468;5.814;2023-02-26T10:26:57;3.58;;;0.68;;
60243;SDS011;46106;51.468;5.814;2023-02-26T10:29:33;1.63;;;0.50;;
60243;SDS011;46106;51.468;5.814;2023-02-26T10:32:23;3.03;;;0.60;;
60243;SDS011;46106;51.468;5.814;2023-02-26T10:34:59;5.13;;;0.40;;
60243;SDS011;46106;51.468;5.814;2023-02-26T10:42:51;4.90;;;0.82;;
60243;SDS011;46106;51.468;5.814;2023-02-26T10:45:23;1.38;;;0.50;;
60243;SDS011;46106;51.468;5.814;2023-02-26T10:50:57;1.85;;;0.63;;
60243;SDS011;46106;51.468;5.814;2023-02-26T10:53:25;1.50;;;0.60;;
60243;SDS011;46106;51.468;5.814;2023-02-26T10:56:26;1.13;;;0.40;;
60243;SDS011;46106;51.468;5.814;2023-02-26T10:58:50;1.52;;;0.40;;
60243;SDS011;46106;51.468;5.814;2023-02-26T11:01:17;1.92;;;0.50;;
60243;SDS011;46106;51.468;5.814;2023-02-26T11:03:46;2.70;;;0.50;;
60243;SDS011;46106;51.468;5.814;2023-02-26T11:06:27;2.47;;;0.40;;
60243;SDS011;46106;51.468;5.814;2023-02-26T11:09:01;5.10;;;0.50;;
60243;SDS011;46106;51.468;5.814;2023-02-26T11:11:39;5.15;;;0.70;;
60243;SDS011;46106;51.468;5.814;2023-02-26T11:14:31;2.33;;;0.60;;
60243;SDS011;46106;51.468;5.814;2023-02-26T11:16:58;2.08;;;0.70;;
60243;SDS011;46106;51.468;5.814;2023-02-26T11:19:37;4.85;;;0.50;;
60243;SDS011;46106;51.468;5.814;2023-02-26T11:22:05;1.80;;;0.68;;
60243;SDS011;46106;51.468;5.814;2023-02-26T11:24:36;3.55;;;0.45;;
60243;SDS011;46106;51.468;5.814;2023-02-26T11:27:07;4.32;;;0.60;;
60243;SDS011;46106;51.468;5.814;2023-02-26T11:29:41;0.90;;;0.43;;
60243;SDS011;46106;51.468;5.814;2023-02-26T11:32:15;3.38;;;0.60;;
60243;SDS011;46106;51.468;5.814;2023-02-26T11:34:47;2.40;;;0.60;;
60243;SDS011;46106;51.468;5.814;2023-02-26T11:37:21;3.60;;;0.68;;
60243;SDS011;46106;51.468;5.814;2023-02-26T11:39:54;1.67;;;0.50;;
60243;SDS011;46106;51.468;5.814;2023-02-26T11:42:23;2.53;;;0.93;;
60243;SDS011;46106;51.468;5.814;2023-02-26T11:44:49;1.85;;;0.47;;
60243;SDS011;46106;51.468;5.814;2023-02-26T11:47:18;2.97;;;0.50;;
60243;SDS011;46106;51.468;5.814;2023-02-26T11:49:52;2.10;;;0.70;;
60243;SDS011;46106;51.468;5.814;2023-02-26T11:52:28;4.10;;;0.60;;
60243;SDS011;46106;51.468;5.814;2023-02-26T11:54:58;3.90;;;0.52;;
60243;SDS011;46106;51.468;5.814;2023-02-26T11:57:27;1.40;;;0.50;;
60243;SDS011;46106;51.468;5.814;2023-02-26T11:59:54;2.45;;;0.60;;
60243;SDS011;46106;51.468;5.814;2023-02-26T12:02:24;4.82;;;0.90;;
60243;SDS011;46106;51.468;5.814;2023-02-26T12:04:59;2.90;;;0.50;;
60243;SDS011;46106;51.468;5.814;2023-02-26T12:07:26;4.38;;;0.80;;
60243;SDS011;46106;51.468;5.814;2023-02-26T12:09:53;0.80;;;0.43;;
60243;SDS011;46106;51.468;5.814;2023-02-26T12:12:40;3.42;;;0.70;;
60243;SDS011;46106;51.468;5.814;2023-02-26T12:35:35;3.22;;;0.70;;
60243;SDS011;46106;51.468;5.814;2023-02-26T12:43:49;0.90;;;0.50;;
60243;SDS011;46106;51.468;5.814;2023-02-26T12:54:50;1.27;;;0.38;;
60243;SDS011;46106;51.468;5.814;2023-02-26T13:05:26;1.58;;;0.50;;
60243;SDS011;46106;51.468;5.814;2023-02-26T13:08:11;1.33;;;0.50;;
60243;SDS011;46106;51.468;5.814;2023-02-26T13:14:08;2.90;;;0.60;;
60243;SDS011;46106;51.468;5.814;2023-02-26T13:19:57;1.02;;;0.50;;
60243;SDS011;46106;51.468;5.814;2023-02-26T13:22:34;6.47;;;0.50;;
60243;SDS011;46106;51.468;5.814;2023-02-26T13:25:26;4.22;;;0.70;;
60243;SDS011;46106;51.468;5.814;2023-02-26T13:28:00;3.10;;;0.65;;
60243;SDS011;46106;51.468;5.814;2023-02-26T13:33:06;3.00;;;0.50;;
60243;SDS011;46106;51.468;5.814;2023-02-26T13:35:40;4.72;;;0.68;;
60243;SDS011;46106;51.468;5.814;2023-02-26T13:38:41;1.33;;;0.47;;
60243;SDS011;46106;51.468;5.814;2023-02-26T13:41:27;2.92;;;0.40;;
60243;SDS011;46106;51.468;5.814;2023-02-26T13:47:31;1.10;;;0.50;;
60243;SDS011;46106;51.468;5.814;2023-02-26T13:52:53;0.77;;;0.35;;
60243;SDS011;46106;51.468;5.814;2023-02-26T13:55:39;2.13;;;0.50;;
60243;SDS011;46106;51.468;5.814;2023-02-26T14:03:49;3.47;;;0.40;;
60243;SDS011;46106;51.468;5.814;2023-02-26T14:09:04;1.85;;;0.38;;
60243;SDS011;46106;51.468;5.814;2023-02-26T14:17:16;1.98;;;0.40;;
60243;SDS011;46106;51.468;5.814;2023-02-26T14:19:40;2.35;;;0.50;;
60243;SDS011;46106;51.468;5.814;2023-02-26T14:24:37;5.47;;;0.60;;
60243;SDS011;46106;51.468;5.814;2023-02-26T14:27:21;4.30;;;0.50;;
60243;SDS011;46106;51.468;5.814;2023-02-26T14:30:03;0.50;;;0.40;;
60243;SDS011;46106;51.468;5.814;2023-02-26T14:32:33;0.73;;;0.40;;
60243;SDS011;46106;51.468;5.814;2023-02-26T14:44:13;1.92;;;0.50;;
60243;SDS011;46106;51.468;5.814;2023-02-26T14:46:42;2.33;;;0.43;;
60243;SDS011;46106;51.468;5.814;2023-02-26T14:54:50;3.25;;;0.50;;
60243;SDS011;46106;51.468;5.814;2023-02-26T14:57:40;2.60;;;0.50;;
60243;SDS011;46106;51.468;5.814;2023-02-26T15:03:10;2.55;;;0.55;;
60243;SDS011;46106;51.468;5.814;2023-02-26T15:09:19;0.40;;;0.40;;
60243;SDS011;46106;51.468;5.814;2023-02-26T15:11:55;0.43;;;0.30;;
60243;SDS011;46106;51.468;5.814;2023-02-26T15:17:25;5.18;;;0.60;;
60243;SDS011;46106;51.468;5.814;2023-02-26T15:23:23;1.10;;;0.50;;
60243;SDS011;46106;51.468;5.814;2023-02-26T15:26:05;2.05;;;0.65;;
60243;SDS011;46106;51.468;5.814;2023-02-26T15:28:33;1.45;;;0.68;;
60243;SDS011;46106;51.468;5.814;2023-02-26T15:31:03;2.08;;;0.50;;
60243;SDS011;46106;51.468;5.814;2023-02-26T15:33:30;1.35;;;0.60;;
60243;SDS011;46106;51.468;5.814;2023-02-26T15:35:57;2.28;;;0.47;;
60243;SDS011;46106;51.468;5.814;2023-02-26T15:38:24;0.90;;;0.60;;
60243;SDS011;46106;51.468;5.814;2023-02-26T15:40:50;4.00;;;0.50;;
60243;SDS011;46106;51.468;5.814;2023-02-26T15:43:27;3.95;;;0.70;;
60243;SDS011;46106;51.468;5.814;2023-02-26T15:45:54;0.38;;;0.32;;
60243;SDS011;46106;51.468;5.814;2023-02-26T15:48:35;4.25;;;0.60;;
60243;SDS011;46106;51.468;5.814;2023-02-26T15:51:03;1.00;;;0.40;;
60243;SDS011;46106;51.468;5.814;2023-02-26T15:56:18;0.43;;;0.40;;
60243;SDS011;46106;51.468;5.814;2023-02-26T16:01:26;2.10;;;0.60;;
60243;SDS011;46106;51.468;5.814;2023-02-26T16:04:00;1.63;;;0.50;;
60243;SDS011;46106;51.468;5.814;2023-02-26T16:06:31;2.20;;;0.50;;
60243;SDS011;46106;51.468;5.814;2023-02-26T16:09:03;1.55;;;0.60;;
60243;SDS011;46106;51.468;5.814;2023-02-26T16:11:32;1.50;;;0.60;;
60243;SDS011;46106;51.468;5.814;2023-02-26T16:14:00;2.45;;;0.52;;
60243;SDS011;46106;51.468;5.814;2023-02-26T16:16:33;2.08;;;0.68;;
60243;SDS011;46106;51.468;5.814;2023-02-26T16:19:07;1.60;;;0.40;;
60243;SDS011;46106;51.468;5.814;2023-02-26T16:21:37;2.47;;;0.60;;
60243;SDS011;46106;51.468;5.814;2023-02-26T16:24:06;1.35;;;0.60;;
60243;SDS011;46106;51.468;5.814;2023-02-26T16:26:37;2.85;;;0.60;;
60243;SDS011;46106;51.468;5.814;2023-02-26T16:31:46;1.67;;;0.50;;
60243;SDS011;46106;51.468;5.814;2023-02-26T16:37:24;0.77;;;0.50;;
60243;SDS011;46106;51.468;5.814;2023-02-26T16:45:16;1.30;;;0.55;;
60243;SDS011;46106;51.468;5.814;2023-02-26T16:47:45;1.95;;;0.50;;
60243;SDS011;46106;51.468;5.814;2023-02-26T16:50:18;1.52;;;0.50;;
60243;SDS011;46106;51.468;5.814;2023-02-26T16:53:39;1.23;;;0.50;;
60243;SDS011;46106;51.468;5.814;2023-02-26T16:55:45;3.08;;;0.60;;
60243;SDS011;46106;51.468;5.814;2023-02-26T16:58:16;1.10;;;0.50;;
60243;SDS011;46106;51.468;5.814;2023-02-26T17:00:44;1.92;;;0.57;;
60243;SDS011;46106;51.468;5.814;2023-02-26T17:03:12;1.73;;;0.50;;
60243;SDS011;46106;51.468;5.814;2023-02-26T17:05:42;1.15;;;0.95;;
60243;SDS011;46106;51.468;5.814;2023-02-26T17:08:18;1.95;;;0.70;;
60243;SDS011;46106;51.468;5.814;2023-02-26T17:11:08;3.35;;;0.50;;
60243;SDS011;46106;51.468;5.814;2023-02-26T17:13:45;1.58;;;0.40;;
60243;SDS011;46106;51.468;5.814;2023-02-26T17:16:32;0.88;;;0.60;;
60243;SDS011;46106;51.468;5.814;2023-02-26T17:18:58;2.45;;;0.50;;
60243;SDS011;46106;51.468;5.814;2023-02-26T17:21:24;2.38;;;0.60;;
60243;SDS011;46106;51.468;5.814;2023-02-26T17:23:51;16.70;;;6.28;;
60243;SDS011;46106;51.468;5.814;2023-02-26T17:26:17;8.15;;;2.35;;
60243;SDS011;46106;51.468;5.814;2023-02-26T17:28:43;6.38;;;1.75;;
60243;SDS011;46106;51.468;5.814;2023-02-26T17:31:08;0.88;;;0.70;;
60243;SDS011;46106;51.468;5.814;2023-02-26T17:33:37;9.85;;;3.75;;
60243;SDS011;46106;51.468;5.814;2023-02-26T17:36:05;4.47;;;1.85;;
60243;SDS011;46106;51.468;5.814;2023-02-26T17:38:31;5.55;;;2.78;;
60243;SDS011;46106;51.468;5.814;2023-02-26T17:40:57;4.85;;;2.10;;
60243;SDS011;46106;51.468;5.814;2023-02-26T17:43:23;2.85;;;2.15;;
60243;SDS011;46106;51.468;5.814;2023-02-26T17:45:52;2.05;;;1.65;;
60243;SDS011;46106;51.468;5.814;2023-02-26T17:48:18;2.22;;;1.20;;
60243;SDS011;46106;51.468;5.814;2023-02-26T17:50:45;2.40;;;1.42;;
60243;SDS011;46106;51.468;5.814;2023-02-26T17:53:13;2.22;;;1.00;;
60243;SDS011;46106;51.468;5.814;2023-02-26T17:55:44;1.83;;;0.80;;
60243;SDS011;46106;51.468;5.814;2023-02-26T17:58:14;1.42;;;0.63;;
60243;SDS011;46106;51.468;5.814;2023-02-26T18:00:51;2.08;;;0.80;;
60243;SDS011;46106;51.468;5.814;2023-02-26T18:03:18;4.35;;;0.98;;
60243;SDS011;46106;51.468;5.814;2023-02-26T18:05:47;3.80;;;1.90;;
60243;SDS011;46106;51.468;5.814;2023-02-26T18:08:20;5.22;;;2.10;;
60243;SDS011;46106;51.468;5.814;2023-02-26T18:10:48;4.63;;;1.83;;
60243;SDS011;46106;51.468;5.814;2023-02-26T18:13:14;2.50;;;1.23;;
60243;SDS011;46106;51.468;5.814;2023-02-26T18:15:39;2.33;;;1.20;;
60243;SDS011;46106;51.468;5.814;2023-02-26T18:18:08;5.72;;;1.65;;
60243;SDS011;46106;51.468;5.814;2023-02-26T18:20:35;4.68;;;1.98;;
60243;SDS011;46106;51.468;5.814;2023-02-26T18:23:00;8.82;;;3.20;;
60243;SDS011;46106;51.468;5.814;2023-02-26T18:25:26;4.47;;;1.75;;
60243;SDS011;46106;51.468;5.814;2023-02-26T18:27:52;0.70;;;0.70;;